Time;durP1;ratioP1;P1;durP2;ratioP2;P2;SDS_P1;SDS_P2;PMS_P1;PMS_P2;Temp;Humidity;BMP_temperature;BMP_pressure;BME280_temperature;BME280_humidity;BME280_pressure;Samples;Min_cycle;Max_cycle;Signal;HPM_P1;HPM_P2
2022/09/21 00:01:37;;;;;;;0.63;0.30;;;;;;;;;;4162957;28;20486;-42
2022/09/21 00:03:40;;;;;;;0.60;0.20;;;;;;;;;;4162383;28;20258;-42
2022/09/21 00:05:41;;;;;;;1.83;0.30;;;;;;;;;;4161600;28;20057;-42
2022/09/21 00:07:43;;;;;;;0.35;0.35;;;;;;;;;;4161249;28;20053;-42
2022/09/21 00:09:44;;;;;;;0.40;0.15;;;;;;;;;;4161734;28;20579;-42
2022/09/21 00:11:46;;;;;;;0.30;0.20;;;;;;;;;;4161662;28;20432;-43
2022/09/21 00:13:54;;;;;;;0.30;0.13;;;;;;;;;;4162739;28;20049;-42
2022/09/21 00:15:55;;;;;;;0.40;0.20;;;;;;;;;;4163236;28;20053;-42
2022/09/21 00:17:57;;;;;;;0.17;0.13;;;;;;;;;;4162618;28;20064;-42
2022/09/21 00:20:04;;;;;;;0.50;0.28;;;;;;;;;;4161533;28;20500;-42
2022/09/21 00:22:06;;;;;;;0.30;0.20;;;;;;;;;;4162847;28;20049;-42
2022/09/21 00:24:07;;;;;;;0.32;0.25;;;;;;;;;;4162710;28;20086;-42
2022/09/21 00:26:26;;;;;;;0.40;0.20;;;;;;;;;;4162852;28;20060;-41
2022/09/21 00:28:27;;;;;;;0.68;0.25;;;;;;;;;;4161596;28;20456;-42
2022/09/21 00:30:29;;;;;;;0.63;0.28;;;;;;;;;;4163092;28;20135;-42
2022/09/21 00:32:30;;;;;;;0.73;0.20;;;;;;;;;;4162150;28;20057;-42
2022/09/21 00:34:31;;;;;;;1.00;0.30;;;;;;;;;;4162999;28;20080;-42
2022/09/21 00:36:33;;;;;;;0.40;0.20;;;;;;;;;;4162793;28;20057;-42
2022/09/21 00:38:35;;;;;;;0.40;0.22;;;;;;;;;;4160803;28;20053;-42
2022/09/21 00:40:36;;;;;;;1.10;0.30;;;;;;;;;;4162783;28;20057;-42
2022/09/21 00:42:38;;;;;;;0.40;0.20;;;;;;;;;;4162582;28;20049;-42
2022/09/21 00:44:39;;;;;;;0.55;0.40;;;;;;;;;;4162738;28;20065;-42
2022/09/21 00:46:41;;;;;;;0.40;0.20;;;;;;;;;;4162671;28;20393;-42
2022/09/21 00:48:44;;;;;;;0.50;0.30;;;;;;;;;;4161389;28;20050;-42
2022/09/21 00:50:49;;;;;;;0.35;0.20;;;;;;;;;;4164445;28;20463;-42
2022/09/21 00:52:53;;;;;;;0.30;0.20;;;;;;;;;;4164908;28;20050;-42
2022/09/21 00:55:02;;;;;;;0.32;0.20;;;;;;;;;;4164364;28;20057;-42
2022/09/21 00:57:03;;;;;;;0.35;0.30;;;;;;;;;;4164432;28;20476;-42
2022/09/21 00:59:04;;;;;;;0.73;0.35;;;;;;;;;;4165472;28;20060;-42
2022/09/21 01:01:06;;;;;;;0.25;0.15;;;;;;;;;;4164188;28;20092;-42
2022/09/21 01:03:08;;;;;;;0.40;0.30;;;;;;;;;;4163488;28;20467;-42
2022/09/21 01:05:09;;;;;;;0.63;0.20;;;;;;;;;;4147834;28;20108;-42
2022/09/21 01:07:14;;;;;;;0.55;0.25;;;;;;;;;;4163437;28;20516;-42
2022/09/21 01:09:16;;;;;;;0.43;0.30;;;;;;;;;;4164234;28;20057;-42
2022/09/21 01:11:46;;;;;;;0.10;0.10;;;;;;;;;;4165655;28;20056;-41
2022/09/21 01:14:18;;;;;;;0.40;0.20;;;;;;;;;;4165220;28;20057;-42
2022/09/21 01:16:27;;;;;;;0.20;0.17;;;;;;;;;;4165623;28;20083;-41
2022/09/21 01:18:58;;;;;;;0.22;0.22;;;;;;;;;;4164802;28;20103;-42
2022/09/21 01:21:22;;;;;;;0.52;0.30;;;;;;;;;;4149796;28;20488;-42
2022/09/21 01:23:56;;;;;;;0.88;0.30;;;;;;;;;;4163375;28;20049;-42
2022/09/21 01:26:03;;;;;;;0.10;0.10;;;;;;;;;;4164225;28;20198;-42
2022/09/21 01:28:10;;;;;;;0.40;0.20;;;;;;;;;;4164132;28;20095;-42
2022/09/21 01:30:14;;;;;;;0.40;0.30;;;;;;;;;;4165234;28;20128;-42
2022/09/21 01:32:19;;;;;;;0.52;0.20;;;;;;;;;;4163059;28;20064;-42
2022/09/21 01:34:27;;;;;;;0.15;0.10;;;;;;;;;;4165106;28;20127;-42
2022/09/21 01:36:30;;;;;;;0.43;0.20;;;;;;;;;;4163410;28;20057;-41
2022/09/21 01:38:36;;;;;;;0.88;0.30;;;;;;;;;;4163500;28;20053;-42
2022/09/21 01:40:40;;;;;;;0.52;0.10;;;;;;;;;;4165110;28;20107;-42
2022/09/21 01:42:43;;;;;;;0.30;0.20;;;;;;;;;;4163568;28;20057;-42
2022/09/21 01:44:46;;;;;;;0.50;0.30;;;;;;;;;;4163771;28;20053;-42
2022/09/21 01:46:47;;;;;;;0.20;0.20;;;;;;;;;;4163631;28;20509;-42
2022/09/21 01:48:52;;;;;;;0.28;0.20;;;;;;;;;;4164579;28;20088;-42
2022/09/21 01:50:56;;;;;;;0.20;0.20;;;;;;;;;;4163396;28;20460;-42
2022/09/21 01:52:59;;;;;;;0.85;0.20;;;;;;;;;;4162808;28;20045;-42
2022/09/21 01:55:07;;;;;;;0.10;0.10;;;;;;;;;;4164774;28;20057;-42
2022/09/21 01:57:20;;;;;;;0.30;0.20;;;;;;;;;;4163109;28;20046;-42
2022/09/21 01:59:45;;;;;;;0.88;0.25;;;;;;;;;;4163618;28;20057;-42
2022/09/21 02:01:56;;;;;;;0.73;0.30;;;;;;;;;;4163645;28;20405;-42
2022/09/21 02:04:03;;;;;;;0.70;0.30;;;;;;;;;;4162762;28;20111;-42
2022/09/21 02:06:05;;;;;;;0.57;0.20;;;;;;;;;;4163261;28;20053;-42
2022/09/21 02:08:08;;;;;;;0.30;0.20;;;;;;;;;;4163986;28;20484;-42
2022/09/21 02:10:14;;;;;;;0.98;0.40;;;;;;;;;;4163423;28;20068;-42
2022/09/21 02:12:15;;;;;;;0.22;0.10;;;;;;;;;;4162982;28;20092;-42
2022/09/21 02:14:19;;;;;;;0.40;0.17;;;;;;;;;;4164328;28;20050;-42
2022/09/21 02:16:27;;;;;;;0.47;0.20;;;;;;;;;;4146991;28;20049;-42
2022/09/21 02:18:28;;;;;;;0.30;0.20;;;;;;;;;;4163946;28;20072;-42
2022/09/21 02:20:51;;;;;;;0.55;0.22;;;;;;;;;;4164369;28;20060;-41
2022/09/21 02:23:05;;;;;;;0.30;0.20;;;;;;;;;;4147400;28;20321;-41
2022/09/21 02:25:14;;;;;;;0.30;0.30;;;;;;;;;;4148036;28;20111;-41
2022/09/21 02:27:23;;;;;;;0.50;0.30;;;;;;;;;;4148073;28;20482;-41
2022/09/21 02:29:34;;;;;;;0.30;0.20;;;;;;;;;;4146605;28;20057;-41
2022/09/21 02:31:43;;;;;;;0.60;0.15;;;;;;;;;;4130345;28;20513;-41
2022/09/21 02:33:57;;;;;;;0.20;0.20;;;;;;;;;;4145992;28;20191;-41
2022/09/21 02:36:07;;;;;;;0.68;0.10;;;;;;;;;;4145766;28;20054;-41
2022/09/21 02:38:20;;;;;;;0.20;0.20;;;;;;;;;;4146708;28;20054;-41
2022/09/21 02:40:28;;;;;;;0.30;0.20;;;;;;;;;;4148055;28;20062;-42
2022/09/21 02:42:32;;;;;;;0.30;0.20;;;;;;;;;;4146458;28;20513;-42
2022/09/21 02:44:39;;;;;;;0.17;0.17;;;;;;;;;;4146431;28;20669;-41
2022/09/21 02:46:52;;;;;;;0.68;0.30;;;;;;;;;;4146320;28;20100;-42
2022/09/21 02:49:06;;;;;;;0.40;0.20;;;;;;;;;;4147006;28;20478;-41
2022/09/21 02:51:14;;;;;;;0.85;0.30;;;;;;;;;;4159955;28;20053;-41
2022/09/21 02:53:19;;;;;;;0.43;0.20;;;;;;;;;;4163753;28;20045;-41
2022/09/21 02:55:20;;;;;;;0.30;0.25;;;;;;;;;;4162612;28;20060;-41
2022/09/21 02:57:22;;;;;;;0.25;0.17;;;;;;;;;;4162292;28;20061;-41
2022/09/21 02:59:23;;;;;;;0.40;0.28;;;;;;;;;;4162732;28;20056;-41
2022/09/21 03:01:25;;;;;;;0.20;0.15;;;;;;;;;;4163874;28;20135;-41
2022/09/21 03:03:26;;;;;;;0.30;0.10;;;;;;;;;;4162979;28;20463;-41
2022/09/21 03:05:28;;;;;;;0.50;0.20;;;;;;;;;;4163393;28;20049;-41
2022/09/21 03:07:29;;;;;;;0.28;0.20;;;;;;;;;;4161648;28;20057;-42
2022/09/21 03:09:30;;;;;;;0.38;0.20;;;;;;;;;;4156487;28;20057;-41
2022/09/21 03:11:32;;;;;;;0.55;0.30;;;;;;;;;;4152039;28;20080;-41
2022/09/21 03:13:34;;;;;;;1.65;0.20;;;;;;;;;;4161851;28;20053;-42
2022/09/21 03:15:36;;;;;;;0.25;0.20;;;;;;;;;;4161628;28;20127;-41
2022/09/21 03:17:37;;;;;;;0.38;0.10;;;;;;;;;;4161191;28;20148;-41
2022/09/21 03:19:39;;;;;;;0.38;0.13;;;;;;;;;;4161515;28;20064;-41
2022/09/21 03:21:41;;;;;;;0.20;0.17;;;;;;;;;;4159334;28;20057;-41
2022/09/21 03:23:42;;;;;;;0.10;0.10;;;;;;;;;;4161399;28;20050;-41
2022/09/21 03:25:46;;;;;;;0.45;0.20;;;;;;;;;;4161454;28;20413;-41
2022/09/21 03:27:52;;;;;;;0.75;0.30;;;;;;;;;;4161493;28;20061;-41
2022/09/21 03:29:53;;;;;;;0.20;0.20;;;;;;;;;;4160127;28;20057;-41
2022/09/21 03:31:54;;;;;;;0.45;0.10;;;;;;;;;;4161267;28;20053;-41
2022/09/21 03:33:55;;;;;;;0.25;0.10;;;;;;;;;;4160555;28;20053;-41
2022/09/21 03:35:57;;;;;;;0.30;0.20;;;;;;;;;;4161260;28;20111;-41
2022/09/21 03:37:58;;;;;;;0.40;0.22;;;;;;;;;;4161557;28;20049;-41
2022/09/21 03:39:59;;;;;;;0.10;0.10;;;;;;;;;;4143693;28;20057;-41
2022/09/21 03:42:01;;;;;;;0.40;0.20;;;;;;;;;;4161497;28;20053;-41
2022/09/21 03:44:02;;;;;;;0.40;0.20;;;;;;;;;;4161042;28;20049;-41
2022/09/21 03:46:04;;;;;;;0.10;0.10;;;;;;;;;;4160565;28;20199;-41
2022/09/21 03:48:05;;;;;;;0.20;0.20;;;;;;;;;;4161012;28;20057;-41
2022/09/21 03:50:07;;;;;;;0.20;0.10;;;;;;;;;;4161011;28;20081;-41
2022/09/21 03:52:08;;;;;;;0.47;0.20;;;;;;;;;;4159827;28;20057;-41
2022/09/21 03:54:09;;;;;;;0.20;0.20;;;;;;;;;;4160173;28;20062;-41
2022/09/21 03:56:10;;;;;;;0.60;0.30;;;;;;;;;;4160000;28;20139;-42
2022/09/21 03:58:12;;;;;;;0.30;0.20;;;;;;;;;;4160134;28;20079;-41
2022/09/21 04:00:13;;;;;;;0.43;0.20;;;;;;;;;;4163152;28;20053;-41
2022/09/21 04:02:15;;;;;;;0.10;0.10;;;;;;;;;;4161027;28;20057;-41
2022/09/21 04:04:16;;;;;;;0.40;0.10;;;;;;;;;;4162839;28;20076;-41
2022/09/21 04:06:18;;;;;;;0.50;0.20;;;;;;;;;;4162527;28;20099;-43
2022/09/21 04:08:19;;;;;;;0.10;0.10;;;;;;;;;;4163071;28;20123;-41
2022/09/21 04:10:32;;;;;;;0.20;0.20;;;;;;;;;;4161897;28;20061;-41
2022/09/21 04:12:33;;;;;;;0.10;0.10;;;;;;;;;;4162794;28;20453;-41
2022/09/21 04:14:35;;;;;;;0.30;0.20;;;;;;;;;;4163204;28;20112;-41
2022/09/21 04:16:37;;;;;;;0.40;0.20;;;;;;;;;;4162680;28;20053;-41
2022/09/21 04:18:39;;;;;;;0.28;0.20;;;;;;;;;;4161144;28;20156;-41
2022/09/21 04:20:40;;;;;;;0.28;0.20;;;;;;;;;;4162542;28;20100;-41
2022/09/21 04:22:42;;;;;;;0.50;0.20;;;;;;;;;;4162898;28;20049;-41
2022/09/21 04:24:43;;;;;;;0.35;0.30;;;;;;;;;;4163827;28;20057;-42
2022/09/21 04:26:45;;;;;;;0.20;0.20;;;;;;;;;;4166374;28;20049;-41
2022/09/21 04:28:46;;;;;;;0.10;0.10;;;;;;;;;;4164854;28;20111;-41
2022/09/21 04:30:47;;;;;;;0.30;0.20;;;;;;;;;;4165895;28;20404;-41
2022/09/21 04:32:48;;;;;;;0.20;0.20;;;;;;;;;;4165479;28;20045;-41
2022/09/21 04:34:50;;;;;;;0.10;0.10;;;;;;;;;;4165808;28;20138;-41
2022/09/21 04:36:53;;;;;;;0.20;0.20;;;;;;;;;;4165947;28;20057;-42
2022/09/21 04:38:54;;;;;;;0.10;0.10;;;;;;;;;;4165701;28;20417;-41
2022/09/21 04:40:55;;;;;;;0.20;0.20;;;;;;;;;;4164962;28;20057;-41
2022/09/21 04:42:57;;;;;;;0.13;0.13;;;;;;;;;;4165869;28;20057;-41
2022/09/21 04:44:58;;;;;;;0.20;0.20;;;;;;;;;;4165644;28;20111;-41
2022/09/21 04:47:00;;;;;;;0.17;0.10;;;;;;;;;;4165971;28;20123;-41
2022/09/21 04:49:01;;;;;;;0.22;0.20;;;;;;;;;;4165513;28;20069;-41
2022/09/21 04:51:03;;;;;;;0.30;0.17;;;;;;;;;;4164836;28;20804;-41
2022/09/21 04:53:04;;;;;;;0.10;0.10;;;;;;;;;;4165458;28;20119;-41
2022/09/21 04:55:06;;;;;;;0.32;0.10;;;;;;;;;;4165454;28;20057;-42
2022/09/21 04:57:07;;;;;;;0.10;0.10;;;;;;;;;;4165672;28;20049;-41
2022/09/21 04:59:09;;;;;;;0.15;0.13;;;;;;;;;;4165532;28;20159;-41
2022/09/21 05:01:10;;;;;;;0.15;0.13;;;;;;;;;;4161603;28;20453;-42
2022/09/21 05:03:12;;;;;;;0.68;0.38;;;;;;;;;;4162668;28;20396;-41
2022/09/21 05:05:13;;;;;;;0.28;0.13;;;;;;;;;;4163110;28;20519;-41
2022/09/21 05:07:14;;;;;;;0.20;0.20;;;;;;;;;;4162006;28;20147;-41
2022/09/21 05:10:01;;;;;;;0.47;0.30;;;;;;;;;;4163356;28;20119;-41
2022/09/21 05:11:37;;;;;;;0.40;0.20;;;;;;;;;;4159357;28;20066;-41
2022/09/21 05:13:39;;;;;;;0.43;0.38;;;;;;;;;;4162998;28;20111;-41
2022/09/21 05:15:40;;;;;;;0.80;0.20;;;;;;;;;;4162201;28;20111;-42
2022/09/21 05:17:42;;;;;;;2.58;0.40;;;;;;;;;;4161315;28;20465;-41
2022/09/21 05:19:43;;;;;;;1.08;0.30;;;;;;;;;;4162854;28;20053;-41
2022/09/21 05:21:45;;;;;;;0.43;0.20;;;;;;;;;;4163521;28;20053;-41
2022/09/21 05:23:46;;;;;;;0.73;0.30;;;;;;;;;;4163246;28;20068;-41
2022/09/21 05:25:48;;;;;;;1.70;0.20;;;;;;;;;;4163155;28;20386;-42
2022/09/21 05:27:49;;;;;;;0.20;0.10;;;;;;;;;;4162966;28;20057;-41
2022/09/21 05:29:51;;;;;;;1.45;0.25;;;;;;;;;;4163001;28;20061;-42
2022/09/21 05:32:33;;;;;;;0.20;0.20;;;;;;;;;;4162979;28;20073;-42
2022/09/21 05:34:54;;;;;;;0.40;0.30;;;;;;;;;;4162410;28;20065;-42
2022/09/21 05:37:10;;;;;;;1.02;0.20;;;;;;;;;;4162752;28;20057;-41
2022/09/21 05:39:11;;;;;;;1.52;0.28;;;;;;;;;;4163170;28;20455;-42
2022/09/21 05:41:13;;;;;;;0.55;0.30;;;;;;;;;;4162969;28;20065;-42
2022/09/21 05:43:14;;;;;;;0.30;0.30;;;;;;;;;;4162756;28;20116;-42
2022/09/21 05:45:17;;;;;;;0.98;0.20;;;;;;;;;;4162756;28;20049;-42
2022/09/21 05:47:35;;;;;;;0.20;0.20;;;;;;;;;;4162576;28;20054;-41
2022/09/21 05:49:37;;;;;;;0.88;0.30;;;;;;;;;;4160929;28;20056;-41
2022/09/21 05:51:41;;;;;;;0.98;0.40;;;;;;;;;;4162855;28;20065;-42
2022/09/21 05:53:52;;;;;;;0.40;0.20;;;;;;;;;;4160796;28;20095;-42
2022/09/21 05:56:23;;;;;;;0.85;0.30;;;;;;;;;;4146453;28;20068;-42
2022/09/21 05:58:30;;;;;;;0.68;0.22;;;;;;;;;;4159252;28;20053;-41
2022/09/21 06:00:42;;;;;;;1.13;0.40;;;;;;;;;;4162016;28;20059;-41
2022/09/21 06:03:25;;;;;;;0.68;0.20;;;;;;;;;;4143643;28;20049;-41
2022/09/21 06:05:26;;;;;;;0.65;0.30;;;;;;;;;;4159986;28;20065;-42
2022/09/21 06:07:27;;;;;;;0.70;0.22;;;;;;;;;;4160780;28;20103;-41
2022/09/21 06:09:29;;;;;;;0.50;0.30;;;;;;;;;;4173984;28;20061;-42
2022/09/21 06:11:30;;;;;;;0.80;0.47;;;;;;;;;;4160540;28;20053;-42
2022/09/21 06:13:32;;;;;;;0.40;0.20;;;;;;;;;;4160084;28;20891;-41
2022/09/21 06:15:37;;;;;;;0.32;0.13;;;;;;;;;;4161371;28;20119;-41
2022/09/21 06:17:38;;;;;;;2.72;0.28;;;;;;;;;;4161410;28;20467;-41
2022/09/21 06:19:39;;;;;;;0.20;0.10;;;;;;;;;;4159256;28;20053;-41
2022/09/21 06:21:40;;;;;;;0.10;0.10;;;;;;;;;;4152959;28;20159;-41
2022/09/21 06:23:42;;;;;;;0.20;0.10;;;;;;;;;;4157219;28;20054;-40
2022/09/21 06:25:43;;;;;;;0.70;0.20;;;;;;;;;;4151975;28;20053;-41
2022/09/21 06:27:44;;;;;;;0.35;0.28;;;;;;;;;;4157513;28;20057;-41
2022/09/21 06:29:46;;;;;;;0.63;0.30;;;;;;;;;;4155045;28;20588;-42
2022/09/21 06:31:47;;;;;;;1.58;0.40;;;;;;;;;;4151849;28;20057;-40
2022/09/21 06:33:48;;;;;;;1.38;0.40;;;;;;;;;;4135603;28;20053;-40
2022/09/21 06:35:54;;;;;;;0.25;0.20;;;;;;;;;;4152995;28;20119;-41
2022/09/21 06:37:59;;;;;;;0.73;0.28;;;;;;;;;;4150262;28;20127;-40
2022/09/21 06:40:00;;;;;;;0.65;0.17;;;;;;;;;;4148389;28;21480;-42
2022/09/21 06:42:02;;;;;;;1.25;0.30;;;;;;;;;;4149740;28;20457;-40
2022/09/21 06:44:04;;;;;;;0.52;0.30;;;;;;;;;;4148253;28;20057;-40
2022/09/21 06:46:05;;;;;;;0.30;0.20;;;;;;;;;;4152261;28;20054;-41
2022/09/21 06:48:06;;;;;;;0.73;0.30;;;;;;;;;;4148669;28;20103;-40
2022/09/21 06:50:07;;;;;;;0.45;0.20;;;;;;;;;;4151162;28;20517;-42
2022/09/21 06:52:09;;;;;;;0.55;0.30;;;;;;;;;;4150856;28;20053;-40
2022/09/21 06:54:10;;;;;;;0.32;0.20;;;;;;;;;;4149177;28;20054;-40
2022/09/21 06:56:11;;;;;;;2.25;0.20;;;;;;;;;;4150682;28;20451;-42
2022/09/21 06:58:12;;;;;;;1.00;0.30;;;;;;;;;;4151239;28;20112;-40
2022/09/21 07:00:13;;;;;;;0.20;0.10;;;;;;;;;;4147700;28;20055;-40
2022/09/21 07:02:15;;;;;;;0.57;0.43;;;;;;;;;;4142746;28;20809;-40
2022/09/21 07:04:16;;;;;;;2.10;0.38;;;;;;;;;;4145632;28;20743;-40
2022/09/21 07:06:18;;;;;;;0.50;0.20;;;;;;;;;;4144730;28;20061;-42
2022/09/21 07:08:19;;;;;;;1.08;0.20;;;;;;;;;;4148316;28;20341;-42
2022/09/21 07:10:21;;;;;;;0.73;0.20;;;;;;;;;;4145906;28;20432;-40
2022/09/21 07:12:22;;;;;;;0.47;0.15;;;;;;;;;;4147651;28;20061;-41
2022/09/21 07:14:23;;;;;;;0.73;0.20;;;;;;;;;;4144337;28;20784;-40
2022/09/21 07:16:24;;;;;;;0.70;0.30;;;;;;;;;;4138220;28;20107;-41
2022/09/21 07:18:25;;;;;;;1.75;0.40;;;;;;;;;;4143223;28;20122;-41
2022/09/21 07:20:26;;;;;;;0.40;0.10;;;;;;;;;;4143428;28;20057;-40
2022/09/21 07:22:28;;;;;;;0.28;0.10;;;;;;;;;;4146916;28;20111;-41
2022/09/21 07:24:30;;;;;;;0.80;0.30;;;;;;;;;;4146809;28;20097;-40
2022/09/21 07:26:32;;;;;;;2.67;0.20;;;;;;;;;;4141419;28;20499;-40
2022/09/21 07:28:34;;;;;;;0.45;0.20;;;;;;;;;;4147167;28;20053;-41
2022/09/21 07:30:37;;;;;;;0.40;0.35;;;;;;;;;;4138776;28;20143;-40
2022/09/21 07:32:38;;;;;;;2.55;0.20;;;;;;;;;;4147090;28;21391;-40
2022/09/21 07:34:40;;;;;;;0.32;0.10;;;;;;;;;;4142497;28;20346;-40
2022/09/21 07:36:41;;;;;;;1.60;0.20;;;;;;;;;;4129729;28;20100;-40
2022/09/21 07:38:43;;;;;;;2.28;0.20;;;;;;;;;;4131416;28;20057;-40
2022/09/21 07:40:44;;;;;;;0.30;0.20;;;;;;;;;;4139430;28;20147;-40
2022/09/21 07:42:45;;;;;;;0.60;0.40;;;;;;;;;;4144337;28;20482;-40
2022/09/21 07:44:46;;;;;;;1.73;0.20;;;;;;;;;;4142870;28;20099;-41
2022/09/21 07:46:48;;;;;;;0.20;0.13;;;;;;;;;;4143833;28;20591;-40
2022/09/21 07:48:52;;;;;;;1.05;0.40;;;;;;;;;;4141436;28;20646;-41
2022/09/21 07:50:56;;;;;;;0.50;0.20;;;;;;;;;;4139355;28;20080;-40
2022/09/21 07:53:01;;;;;;;1.88;0.30;;;;;;;;;;4143379;28;20378;-41
2022/09/21 07:55:02;;;;;;;1.05;0.20;;;;;;;;;;4146051;28;20651;-43
2022/09/21 07:59:23;;;;;;;0.63;0.30;;;;;;;;;;4135624;28;20060;-40
2022/09/21 08:01:25;;;;;;;0.30;0.20;;;;;;;;;;4141480;28;20057;-41
2022/09/21 08:03:26;;;;;;;0.55;0.20;;;;;;;;;;4134529;28;20099;-42
2022/09/21 08:05:28;;;;;;;0.57;0.30;;;;;;;;;;4142529;28;20065;-42
2022/09/21 08:07:30;;;;;;;0.60;0.20;;;;;;;;;;4147898;28;20084;-42
2022/09/21 08:09:31;;;;;;;2.58;0.30;;;;;;;;;;4147103;28;20455;-41
2022/09/21 08:11:33;;;;;;;0.32;0.20;;;;;;;;;;4147896;28;20405;-41
2022/09/21 08:13:34;;;;;;;0.50;0.20;;;;;;;;;;4147521;28;20053;-46
2022/09/21 08:15:35;;;;;;;0.30;0.20;;;;;;;;;;4135494;28;20518;-41
2022/09/21 08:17:37;;;;;;;0.55;0.30;;;;;;;;;;4141150;28;20054;-43
2022/09/21 08:19:38;;;;;;;1.13;0.32;;;;;;;;;;4144289;28;20103;-42
2022/09/21 08:21:40;;;;;;;0.88;0.20;;;;;;;;;;4142103;28;20488;-41
2022/09/21 08:23:41;;;;;;;0.20;0.20;;;;;;;;;;4132944;28;20050;-40
2022/09/21 08:25:43;;;;;;;0.70;0.30;;;;;;;;;;4137406;28;20061;-41
2022/09/21 08:27:46;;;;;;;0.43;0.30;;;;;;;;;;4145284;28;20143;-42
2022/09/21 08:29:47;;;;;;;0.85;0.22;;;;;;;;;;4145737;28;20060;-42
2022/09/21 08:31:48;;;;;;;0.52;0.20;;;;;;;;;;4126621;28;20053;-41
2022/09/21 08:33:50;;;;;;;0.45;0.30;;;;;;;;;;4139533;28;20054;-42
2022/09/21 08:35:57;;;;;;;1.00;0.40;;;;;;;;;;4144522;28;20095;-42
2022/09/21 08:37:58;;;;;;;0.75;0.22;;;;;;;;;;4139477;28;20057;-41
2022/09/21 08:40:00;;;;;;;1.15;0.70;;;;;;;;;;4138550;28;20057;-42
2022/09/21 08:42:09;;;;;;;0.45;0.20;;;;;;;;;;4143205;28;20126;-41
2022/09/21 08:44:25;;;;;;;0.90;0.38;;;;;;;;;;4148209;28;20064;-41
2022/09/21 08:46:27;;;;;;;1.17;0.40;;;;;;;;;;4143280;28;20080;-41
2022/09/21 08:48:31;;;;;;;1.08;0.20;;;;;;;;;;4146576;28;20308;-41
2022/09/21 08:50:42;;;;;;;1.60;0.20;;;;;;;;;;4147214;28;20053;-42
2022/09/21 08:52:43;;;;;;;2.28;0.20;;;;;;;;;;4146197;28;20095;-41
2022/09/21 08:54:48;;;;;;;0.60;0.30;;;;;;;;;;4148178;28;20152;-39
2022/09/21 08:56:49;;;;;;;0.57;0.10;;;;;;;;;;4146215;28;20057;-40
2022/09/21 08:58:51;;;;;;;1.75;0.20;;;;;;;;;;4145815;28;20054;-40
2022/09/21 09:01:30;;;;;;;0.50;0.20;;;;;;;;;;4145029;28;20061;-41
2022/09/21 09:03:53;;;;;;;0.20;0.20;;;;;;;;;;4134766;28;20445;-42
2022/09/21 09:06:00;;;;;;;0.60;0.17;;;;;;;;;;4131249;28;20119;-42
2022/09/21 09:08:29;;;;;;;1.05;0.30;;;;;;;;;;4134183;28;20053;-42
2022/09/21 09:10:38;;;;;;;0.30;0.20;;;;;;;;;;4143978;28;20053;-42
2022/09/21 09:12:48;;;;;;;1.60;0.20;;;;;;;;;;4142663;28;20065;-43
2022/09/21 09:15:08;;;;;;;;;;;;;;;;;;4139093;28;20111;-42
2022/09/21 09:17:31;;;;;;;0.32;0.20;;;;;;;;;;4142264;28;20018;-40
2022/09/21 09:19:40;;;;;;;0.45;0.10;;;;;;;;;;4146798;28;20080;-41
2022/09/21 09:21:41;;;;;;;0.95;0.10;;;;;;;;;;4143571;28;20061;-42
2022/09/21 09:23:47;;;;;;;0.63;0.20;;;;;;;;;;4147772;28;20096;-44
2022/09/21 09:26:10;;;;;;;1.98;0.40;;;;;;;;;;4134738;28;20053;-42
2022/09/21 09:28:49;;;;;;;0.50;0.20;;;;;;;;;;4148798;28;20092;-42
2022/09/21 09:30:57;;;;;;;2.47;0.20;;;;;;;;;;4139087;28;20053;-41
2022/09/21 09:33:17;;;;;;;0.35;0.10;;;;;;;;;;4143770;28;20545;-42
2022/09/21 09:35:25;;;;;;;0.17;0.17;;;;;;;;;;4137451;28;20057;-41
2022/09/21 09:37:33;;;;;;;0.55;0.28;;;;;;;;;;4136571;28;20112;-42
2022/09/21 09:39:34;;;;;;;1.02;0.20;;;;;;;;;;4146487;28;20058;-42
2022/09/21 09:41:45;;;;;;;0.57;0.20;;;;;;;;;;4147527;28;20408;-41
2022/09/21 09:44:06;;;;;;;1.75;0.20;;;;;;;;;;4151864;28;20072;-42
2022/09/21 09:46:31;;;;;;;0.50;0.15;;;;;;;;;;4138663;28;20157;-41
2022/09/21 09:48:47;;;;;;;0.15;0.10;;;;;;;;;;4147356;28;20053;-42
2022/09/21 09:50:49;;;;;;;0.30;0.10;;;;;;;;;;4143509;28;20111;-42
2022/09/21 09:52:53;;;;;;;0.22;0.22;;;;;;;;;;4145926;28;20057;-42
2022/09/21 09:54:54;;;;;;;2.33;0.30;;;;;;;;;;4147740;28;20544;-42
2022/09/21 09:56:55;;;;;;;0.30;0.20;;;;;;;;;;4145628;28;20107;-42
2022/09/21 09:58:58;;;;;;;0.73;0.20;;;;;;;;;;4149181;28;20069;-42
2022/09/21 10:00:59;;;;;;;0.10;0.10;;;;;;;;;;4147963;28;20060;-42
2022/09/21 10:03:00;;;;;;;0.22;0.10;;;;;;;;;;4144312;28;20579;-41
2022/09/21 10:05:07;;;;;;;8.30;1.40;;;;;;;;;;4151661;28;20107;-43
2022/09/21 10:07:18;;;;;;;0.80;0.30;;;;;;;;;;4147131;28;20061;-42
2022/09/21 10:09:32;;;;;;;0.88;0.20;;;;;;;;;;4135684;28;21710;-41
2022/09/21 10:11:35;;;;;;;0.57;0.10;;;;;;;;;;4145305;28;21653;-41
2022/09/21 10:13:46;;;;;;;0.20;0.20;;;;;;;;;;4139337;28;20053;-42
2022/09/21 10:15:49;;;;;;;0.30;0.10;;;;;;;;;;4149068;28;20103;-42
2022/09/21 10:18:02;;;;;;;0.52;0.20;;;;;;;;;;4147845;28;20675;-41
2022/09/21 10:20:05;;;;;;;0.20;0.10;;;;;;;;;;4148880;28;20053;-42
2022/09/21 10:22:14;;;;;;;0.60;0.20;;;;;;;;;;4149579;28;20057;-41
2022/09/21 10:24:21;;;;;;;0.52;0.20;;;;;;;;;;4148479;28;20409;-41
2022/09/21 10:26:23;;;;;;;0.50;0.30;;;;;;;;;;4130746;28;20555;-42
2022/09/21 10:28:25;;;;;;;0.32;0.20;;;;;;;;;;4145094;28;20107;-41
2022/09/21 10:30:29;;;;;;;0.40;0.22;;;;;;;;;;4150118;28;20053;-43
2022/09/21 10:32:31;;;;;;;0.55;0.30;;;;;;;;;;4145237;28;20053;-41
2022/09/21 10:34:33;;;;;;;0.75;0.10;;;;;;;;;;4145273;28;20049;-42
2022/09/21 10:36:36;;;;;;;0.40;0.10;;;;;;;;;;4144021;28;20057;-42
2022/09/21 10:38:37;;;;;;;0.70;0.30;;;;;;;;;;4146217;28;20053;-42
2022/09/21 10:40:39;;;;;;;0.25;0.25;;;;;;;;;;4150778;28;20993;-42
2022/09/21 10:42:41;;;;;;;1.38;0.25;;;;;;;;;;4144412;28;20196;-42
2022/09/21 10:44:43;;;;;;;1.10;0.17;;;;;;;;;;4146758;28;20119;-42
2022/09/21 10:46:46;;;;;;;1.05;0.38;;;;;;;;;;4141962;28;20744;-43
2022/09/21 10:48:47;;;;;;;0.35;0.20;;;;;;;;;;4138904;28;20111;-41
2022/09/21 10:50:50;;;;;;;0.95;0.20;;;;;;;;;;4143411;28;20547;-42
2022/09/21 10:53:09;;;;;;;0.47;0.30;;;;;;;;;;4140225;28;20061;-42
2022/09/21 10:55:19;;;;;;;2.17;0.40;;;;;;;;;;4132331;28;20053;-42
2022/09/21 10:57:22;;;;;;;0.45;0.20;;;;;;;;;;4133664;28;20084;-42
2022/09/21 10:59:31;;;;;;;0.25;0.10;;;;;;;;;;4125076;28;20615;-40
2022/09/21 11:01:33;;;;;;;0.68;0.20;;;;;;;;;;4131939;28;20057;-42
2022/09/21 11:03:34;;;;;;;0.75;0.22;;;;;;;;;;4139295;28;20107;-42
2022/09/21 11:05:37;;;;;;;0.68;0.10;;;;;;;;;;4139772;28;20072;-41
2022/09/21 11:07:44;;;;;;;0.50;0.25;;;;;;;;;;4140309;28;20143;-42
2022/09/21 11:10:03;;;;;;;0.20;0.20;;;;;;;;;;4148113;28;20061;-43
2022/09/21 11:12:16;;;;;;;0.40;0.20;;;;;;;;;;4137624;28;20689;-44
2022/09/21 11:14:42;;;;;;;0.32;0.20;;;;;;;;;;4140075;28;20045;-42
2022/09/21 11:16:59;;;;;;;0.30;0.10;;;;;;;;;;4141406;28;20065;-42
2022/09/21 11:19:16;;;;;;;1.00;0.20;;;;;;;;;;4148867;28;20108;-43
2022/09/21 11:21:40;;;;;;;0.10;0.10;;;;;;;;;;4146000;28;20509;-42
2022/09/21 11:23:54;;;;;;;0.30;0.15;;;;;;;;;;4146027;28;20053;-43
2022/09/21 11:26:09;;;;;;;0.15;0.10;;;;;;;;;;4144124;28;20155;-43
2022/09/21 11:28:21;;;;;;;0.10;0.10;;;;;;;;;;4143048;28;20219;-42
2022/09/21 11:30:22;;;;;;;0.30;0.20;;;;;;;;;;4144705;28;20057;-41
2022/09/21 11:32:36;;;;;;;1.65;0.30;;;;;;;;;;4141551;28;20057;-42
2022/09/21 11:34:43;;;;;;;0.30;0.20;;;;;;;;;;4140171;28;20119;-40
2022/09/21 11:36:57;;;;;;;0.40;0.38;;;;;;;;;;4143062;28;20053;-41
2022/09/21 11:39:32;;;;;;;0.40;0.22;;;;;;;;;;4131898;28;20458;-42
2022/09/21 11:41:52;;;;;;;0.32;0.10;;;;;;;;;;4137807;28;20053;-40
2022/09/21 11:44:27;;;;;;;0.20;0.10;;;;;;;;;;4143307;28;20052;-42
2022/09/21 11:46:42;;;;;;;0.40;0.20;;;;;;;;;;4142485;28;20377;-42
2022/09/21 11:48:51;;;;;;;0.90;0.40;;;;;;;;;;4138358;28;20057;-39
2022/09/21 11:51:05;;;;;;;0.60;0.13;;;;;;;;;;4124615;28;20058;-42
2022/09/21 11:53:21;;;;;;;0.20;0.10;;;;;;;;;;4145069;28;21375;-41
2022/09/21 11:55:35;;;;;;;0.90;0.10;;;;;;;;;;4143007;28;20057;-39
2022/09/21 11:57:44;;;;;;;0.50;0.20;;;;;;;;;;4142306;28;20103;-40
2022/09/21 12:00:07;;;;;;;0.35;0.17;;;;;;;;;;4147185;28;20119;-40
2022/09/21 12:02:32;;;;;;;0.43;0.10;;;;;;;;;;4133631;28;20123;-41
2022/09/21 12:04:40;;;;;;;0.68;0.10;;;;;;;;;;4146600;28;20073;-42
2022/09/21 12:06:48;;;;;;;0.35;0.15;;;;;;;;;;4140983;28;20487;-40
2022/09/21 12:09:30;;;;;;;0.22;0.13;;;;;;;;;;4144479;28;20079;-41
2022/09/21 12:11:37;;;;;;;0.32;0.10;;;;;;;;;;4145396;28;20144;-41
2022/09/21 12:13:50;;;;;;;0.00;0.00;;;;;;;;;;4144325;28;20563;-43
2022/09/21 12:16:02;;;;;;;0.38;0.10;;;;;;;;;;4144281;28;20053;-42
2022/09/21 12:18:13;;;;;;;0.38;0.10;;;;;;;;;;4143468;28;20433;-42
2022/09/21 12:20:38;;;;;;;0.03;0.00;;;;;;;;;;4142622;28;20190;-43
2022/09/21 12:22:41;;;;;;;3.10;0.15;;;;;;;;;;4141819;28;20108;-44
2022/09/21 12:24:46;;;;;;;0.30;0.17;;;;;;;;;;4143104;28;20147;-44
2022/09/21 12:27:16;;;;;;;0.30;0.10;;;;;;;;;;4123425;28;20128;-43
2022/09/21 12:29:36;;;;;;;0.50;0.10;;;;;;;;;;4144761;28;20102;-44
2022/09/21 12:31:42;;;;;;;0.10;0.10;;;;;;;;;;4142074;28;20146;-43
2022/09/21 12:33:51;;;;;;;0.10;0.05;;;;;;;;;;4128702;28;20104;-42
2022/09/21 12:35:59;;;;;;;0.10;0.10;;;;;;;;;;4147489;28;20401;-45
2022/09/21 12:38:11;;;;;;;0.20;0.15;;;;;;;;;;4146982;28;20060;-42
2022/09/21 12:40:23;;;;;;;0.20;0.13;;;;;;;;;;4145912;28;20091;-43